sensor_id;sensor_type;location;lat;lon;timestamp;temperature;humidity
21778;DHT22;11050;52.222;20.916;2022-11-06T00:01:51;8.40;99.90
21778;DHT22;11050;52.222;20.916;2022-11-06T00:04:17;8.40;99.90
21778;DHT22;11050;52.222;20.916;2022-11-06T00:06:43;8.40;99.90
21778;DHT22;11050;52.222;20.916;2022-11-06T00:09:17;8.30;99.90
21778;DHT22;11050;52.222;20.916;2022-11-06T00:11:45;8.30;99.90
21778;DHT22;11050;52.222;20.916;2022-11-06T00:14:12;8.30;99.90
21778;DHT22;11050;52.222;20.916;2022-11-06T00:16:39;8.30;99.90
21778;DHT22;11050;52.222;20.916;2022-11-06T00:19:06;8.20;99.90
21778;DHT22;11050;52.222;20.916;2022-11-06T00:21:32;8.20;99.90
21778;DHT22;11050;52.222;20.916;2022-11-06T00:24:00;8.20;99.90
21778;DHT22;11050;52.222;20.916;2022-11-06T00:26:29;8.10;99.90
21778;DHT22;11050;52.222;20.916;2022-11-06T00:28:56;8.10;99.90
21778;DHT22;11050;52.222;20.916;2022-11-06T00:31:25;8.00;99.90
21778;DHT22;11050;52.222;20.916;2022-11-06T00:33:54;8.00;99.90
21778;DHT22;11050;52.222;20.916;2022-11-06T00:36:23;8.00;99.90
21778;DHT22;11050;52.222;20.916;2022-11-06T00:38:53;8.00;99.90
21778;DHT22;11050;52.222;20.916;2022-11-06T00:41:21;7.90;99.90
21778;DHT22;11050;52.222;20.916;2022-11-06T00:43:49;7.90;99.90
21778;DHT22;11050;52.222;20.916;2022-11-06T00:46:17;7.90;99.90
21778;DHT22;11050;52.222;20.916;2022-11-06T00:48:43;7.90;99.90
21778;DHT22;11050;52.222;20.916;2022-11-06T00:51:11;7.90;99.90
21778;DHT22;11050;52.222;20.916;2022-11-06T00:53:39;7.80;99.90
21778;DHT22;11050;52.222;20.916;2022-11-06T00:56:11;7.80;99.90
21778;DHT22;11050;52.222;20.916;2022-11-06T00:58:39;7.80;99.90
21778;DHT22;11050;52.222;20.916;2022-11-06T01:03:50;7.70;99.90
21778;DHT22;11050;52.222;20.916;2022-11-06T01:06:20;7.70;99.90
21778;DHT22;11050;52.222;20.916;2022-11-06T01:08:48;7.70;99.90
21778;DHT22;11050;52.222;20.916;2022-11-06T01:11:17;7.70;99.90
21778;DHT22;11050;52.222;20.916;2022-11-06T01:13:47;7.70;99.90
21778;DHT22;11050;52.222;20.916;2022-11-06T01:16:15;7.70;99.90
21778;DHT22;11050;52.222;20.916;2022-11-06T01:18:43;7.70;99.90
21778;DHT22;11050;52.222;20.916;2022-11-06T01:21:20;7.70;99.90
21778;DHT22;11050;52.222;20.916;2022-11-06T01:23:56;7.60;99.90
21778;DHT22;11050;52.222;20.916;2022-11-06T01:26:24;7.60;99.90
21778;DHT22;11050;52.222;20.916;2022-11-06T01:28:51;7.60;99.90
21778;DHT22;11050;52.222;20.916;2022-11-06T01:31:20;7.50;99.90
21778;DHT22;11050;52.222;20.916;2022-11-06T01:33:48;7.50;99.90
21778;DHT22;11050;52.222;20.916;2022-11-06T01:36:16;7.50;99.90
21778;DHT22;11050;52.222;20.916;2022-11-06T01:38:48;7.50;99.90
21778;DHT22;11050;52.222;20.916;2022-11-06T01:41:24;7.50;99.90
21778;DHT22;11050;52.222;20.916;2022-11-06T01:43:54;7.50;99.90
21778;DHT22;11050;52.222;20.916;2022-11-06T01:46:24;7.40;99.90
21778;DHT22;11050;52.222;20.916;2022-11-06T01:51:53;7.40;99.90
21778;DHT22;11050;52.222;20.916;2022-11-06T01:54:23;7.40;99.90
21778;DHT22;11050;52.222;20.916;2022-11-06T01:56:53;7.30;99.90
21778;DHT22;11050;52.222;20.916;2022-11-06T01:59:29;7.30;99.90
21778;DHT22;11050;52.222;20.916;2022-11-06T02:02:00;7.30;99.90
21778;DHT22;11050;52.222;20.916;2022-11-06T02:04:30;7.30;99.90
21778;DHT22;11050;52.222;20.916;2022-11-06T02:07:00;7.30;99.90
21778;DHT22;11050;52.222;20.916;2022-11-06T02:09:29;7.20;99.90
21778;DHT22;11050;52.222;20.916;2022-11-06T02:12:13;7.30;99.90
21778;DHT22;11050;52.222;20.916;2022-11-06T02:23:56;7.20;99.90
21778;DHT22;11050;52.222;20.916;2022-11-06T02:35:30;7.00;99.90
21778;DHT22;11050;52.222;20.916;2022-11-06T02:38:16;7.00;99.90
21778;DHT22;11050;52.222;20.916;2022-11-06T02:40:48;6.90;99.90
21778;DHT22;11050;52.222;20.916;2022-11-06T02:43:19;6.90;99.90
21778;DHT22;11050;52.222;20.916;2022-11-06T02:45:54;6.90;99.90
21778;DHT22;11050;52.222;20.916;2022-11-06T02:48:35;6.80;99.90
21778;DHT22;11050;52.222;20.916;2022-11-06T02:51:08;6.80;99.90
21778;DHT22;11050;52.222;20.916;2022-11-06T02:53:38;6.80;99.90
21778;DHT22;11050;52.222;20.916;2022-11-06T02:56:14;6.80;99.90
21778;DHT22;11050;52.222;20.916;2022-11-06T03:01:50;6.80;99.90
21778;DHT22;11050;52.222;20.916;2022-11-06T03:09:58;6.80;99.90
21778;DHT22;11050;52.222;20.916;2022-11-06T03:12:51;6.70;99.90
21778;DHT22;11050;52.222;20.916;2022-11-06T03:16:16;6.80;99.90
21778;DHT22;11050;52.222;20.916;2022-11-06T03:18:53;6.70;99.90
21778;DHT22;11050;52.222;20.916;2022-11-06T03:21:47;6.70;99.90
21778;DHT22;11050;52.222;20.916;2022-11-06T03:24:41;6.70;99.90
21778;DHT22;11050;52.222;20.916;2022-11-06T03:27:16;6.70;99.90
21778;DHT22;11050;52.222;20.916;2022-11-06T03:29:48;6.70;99.90
21778;DHT22;11050;52.222;20.916;2022-11-06T03:32:38;6.70;99.90
21778;DHT22;11050;52.222;20.916;2022-11-06T03:38:35;6.60;99.90
21778;DHT22;11050;52.222;20.916;2022-11-06T03:41:09;6.60;99.90
21778;DHT22;11050;52.222;20.916;2022-11-06T03:43:42;6.60;99.90
21778;DHT22;11050;52.222;20.916;2022-11-06T03:46:17;6.50;99.90
21778;DHT22;11050;52.222;20.916;2022-11-06T03:48:49;6.50;99.90
21778;DHT22;11050;52.222;20.916;2022-11-06T03:51:33;6.50;99.90
21778;DHT22;11050;52.222;20.916;2022-11-06T03:54:14;6.40;99.90
21778;DHT22;11050;52.222;20.916;2022-11-06T03:59:16;6.40;99.90
21778;DHT22;11050;52.222;20.916;2022-11-06T04:01:49;6.40;99.90
21778;DHT22;11050;52.222;20.916;2022-11-06T04:04:22;6.40;99.90
21778;DHT22;11050;52.222;20.916;2022-11-06T04:06:53;6.30;99.90
21778;DHT22;11050;52.222;20.916;2022-11-06T04:09:25;6.30;99.90
21778;DHT22;11050;52.222;20.916;2022-11-06T04:12:16;6.30;99.90
21778;DHT22;11050;52.222;20.916;2022-11-06T04:15:12;6.20;99.90
21778;DHT22;11050;52.222;20.916;2022-11-06T04:17:41;6.20;99.90
21778;DHT22;11050;52.222;20.916;2022-11-06T04:20:11;6.20;99.90
21778;DHT22;11050;52.222;20.916;2022-11-06T04:23:43;6.20;99.90
21778;DHT22;11050;52.222;20.916;2022-11-06T04:29:59;6.10;99.90
21778;DHT22;11050;52.222;20.916;2022-11-06T04:41:49;6.10;99.90
21778;DHT22;11050;52.222;20.916;2022-11-06T04:45:02;6.00;99.90
21778;DHT22;11050;52.222;20.916;2022-11-06T04:47:24;6.00;99.90
21778;DHT22;11050;52.222;20.916;2022-11-06T04:49:52;6.00;99.90
21778;DHT22;11050;52.222;20.916;2022-11-06T04:52:24;6.00;99.90
21778;DHT22;11050;52.222;20.916;2022-11-06T04:54:52;5.90;99.90
21778;DHT22;11050;52.222;20.916;2022-11-06T04:57:23;5.90;99.90
21778;DHT22;11050;52.222;20.916;2022-11-06T04:59:49;5.90;99.90
21778;DHT22;11050;52.222;20.916;2022-11-06T05:02:15;5.90;99.90
21778;DHT22;11050;52.222;20.916;2022-11-06T05:04:41;5.90;99.90
21778;DHT22;11050;52.222;20.916;2022-11-06T05:07:08;5.90;99.90
21778;DHT22;11050;52.222;20.916;2022-11-06T05:09:37;5.90;99.90
21778;DHT22;11050;52.222;20.916;2022-11-06T05:12:02;5.80;99.90
21778;DHT22;11050;52.222;20.916;2022-11-06T05:14:28;5.80;99.90
21778;DHT22;11050;52.222;20.916;2022-11-06T05:16:54;5.80;99.90
21778;DHT22;11050;52.222;20.916;2022-11-06T05:19:20;5.70;99.90
21778;DHT22;11050;52.222;20.916;2022-11-06T05:21:45;5.70;99.90
21778;DHT22;11050;52.222;20.916;2022-11-06T05:24:30;5.60;99.90
21778;DHT22;11050;52.222;20.916;2022-11-06T05:26:55;5.50;99.90
21778;DHT22;11050;52.222;20.916;2022-11-06T05:29:21;5.50;99.90
21778;DHT22;11050;52.222;20.916;2022-11-06T05:31:47;5.40;99.90
21778;DHT22;11050;52.222;20.916;2022-11-06T05:34:13;5.40;99.90
21778;DHT22;11050;52.222;20.916;2022-11-06T05:36:38;5.40;99.90
21778;DHT22;11050;52.222;20.916;2022-11-06T05:39:04;5.30;99.90
21778;DHT22;11050;52.222;20.916;2022-11-06T05:41:30;5.30;99.90
21778;DHT22;11050;52.222;20.916;2022-11-06T05:43:56;5.30;99.90
21778;DHT22;11050;52.222;20.916;2022-11-06T05:46:22;5.30;99.90
21778;DHT22;11050;52.222;20.916;2022-11-06T05:48:48;5.30;99.90
21778;DHT22;11050;52.222;20.916;2022-11-06T05:51:13;5.30;99.90
21778;DHT22;11050;52.222;20.916;2022-11-06T05:53:39;5.30;99.90
21778;DHT22;11050;52.222;20.916;2022-11-06T05:56:06;5.40;99.90
21778;DHT22;11050;52.222;20.916;2022-11-06T05:58:32;5.30;99.90
21778;DHT22;11050;52.222;20.916;2022-11-06T06:00:58;5.40;99.90
21778;DHT22;11050;52.222;20.916;2022-11-06T06:03:24;5.40;99.90
21778;DHT22;11050;52.222;20.916;2022-11-06T06:05:51;5.40;99.90
21778;DHT22;11050;52.222;20.916;2022-11-06T06:08:17;5.40;99.90
21778;DHT22;11050;52.222;20.916;2022-11-06T06:10:44;5.40;99.90
21778;DHT22;11050;52.222;20.916;2022-11-06T06:13:11;5.40;99.90
21778;DHT22;11050;52.222;20.916;2022-11-06T06:15:39;5.40;99.90
21778;DHT22;11050;52.222;20.916;2022-11-06T06:18:06;5.40;99.90
21778;DHT22;11050;52.222;20.916;2022-11-06T06:20:33;5.40;99.90
21778;DHT22;11050;52.222;20.916;2022-11-06T06:23:00;5.40;99.90
21778;DHT22;11050;52.222;20.916;2022-11-06T06:25:27;5.40;99.90
21778;DHT22;11050;52.222;20.916;2022-11-06T06:27:54;5.40;99.90
21778;DHT22;11050;52.222;20.916;2022-11-06T06:30:21;5.40;99.90
21778;DHT22;11050;52.222;20.916;2022-11-06T06:32:49;5.40;99.90
21778;DHT22;11050;52.222;20.916;2022-11-06T06:35:15;5.40;99.90
21778;DHT22;11050;52.222;20.916;2022-11-06T06:37:52;5.40;99.90
21778;DHT22;11050;52.222;20.916;2022-11-06T06:40:19;5.40;99.90
21778;DHT22;11050;52.222;20.916;2022-11-06T06:42:46;5.40;99.90
21778;DHT22;11050;52.222;20.916;2022-11-06T06:45:12;5.40;99.90
21778;DHT22;11050;52.222;20.916;2022-11-06T06:47:37;5.40;99.90
21778;DHT22;11050;52.222;20.916;2022-11-06T06:50:03;5.50;99.90
21778;DHT22;11050;52.222;20.916;2022-11-06T06:52:29;5.50;99.90
21778;DHT22;11050;52.222;20.916;2022-11-06T06:54:55;5.50;99.90
21778;DHT22;11050;52.222;20.916;2022-11-06T06:57:21;5.50;99.90
21778;DHT22;11050;52.222;20.916;2022-11-06T06:59:47;5.60;99.90
21778;DHT22;11050;52.222;20.916;2022-11-06T07:02:12;5.60;99.90
21778;DHT22;11050;52.222;20.916;2022-11-06T07:04:38;5.60;99.90
21778;DHT22;11050;52.222;20.916;2022-11-06T07:07:04;5.60;99.90
21778;DHT22;11050;52.222;20.916;2022-11-06T07:09:30;5.60;99.90
21778;DHT22;11050;52.222;20.916;2022-11-06T07:11:57;5.70;99.90
21778;DHT22;11050;52.222;20.916;2022-11-06T07:14:23;5.70;99.90
21778;DHT22;11050;52.222;20.916;2022-11-06T07:16:49;5.70;99.90
21778;DHT22;11050;52.222;20.916;2022-11-06T07:19:15;5.80;99.90
21778;DHT22;11050;52.222;20.916;2022-11-06T07:21:40;5.80;99.90
21778;DHT22;11050;52.222;20.916;2022-11-06T07:24:06;5.90;99.90
21778;DHT22;11050;52.222;20.916;2022-11-06T07:26:32;5.90;99.90
21778;DHT22;11050;52.222;20.916;2022-11-06T07:28:58;6.00;99.90
21778;DHT22;11050;52.222;20.916;2022-11-06T07:31:24;6.00;99.90
21778;DHT22;11050;52.222;20.916;2022-11-06T07:33:50;6.10;99.90
21778;DHT22;11050;52.222;20.916;2022-11-06T07:36:16;6.20;99.90
21778;DHT22;11050;52.222;20.916;2022-11-06T07:38:42;6.30;99.90
21778;DHT22;11050;52.222;20.916;2022-11-06T07:41:13;6.30;99.90
21778;DHT22;11050;52.222;20.916;2022-11-06T07:43:40;6.30;99.90
21778;DHT22;11050;52.222;20.916;2022-11-06T07:46:07;6.40;99.90
21778;DHT22;11050;52.222;20.916;2022-11-06T07:48:35;6.50;99.90
21778;DHT22;11050;52.222;20.916;2022-11-06T07:51:06;6.50;99.90
21778;DHT22;11050;52.222;20.916;2022-11-06T07:53:33;6.50;99.90
21778;DHT22;11050;52.222;20.916;2022-11-06T07:55:59;6.50;99.90
21778;DHT22;11050;52.222;20.916;2022-11-06T07:58:25;6.50;99.90
21778;DHT22;11050;52.222;20.916;2022-11-06T08:00:53;6.60;99.90
21778;DHT22;11050;52.222;20.916;2022-11-06T08:03:22;6.60;99.90
21778;DHT22;11050;52.222;20.916;2022-11-06T08:05:48;6.70;99.90
21778;DHT22;11050;52.222;20.916;2022-11-06T08:08:15;6.70;99.90
21778;DHT22;11050;52.222;20.916;2022-11-06T08:10:41;6.70;99.90
21778;DHT22;11050;52.222;20.916;2022-11-06T08:13:15;6.70;99.90
21778;DHT22;11050;52.222;20.916;2022-11-06T08:15:42;6.70;99.90
21778;DHT22;11050;52.222;20.916;2022-11-06T08:18:10;6.80;99.90
21778;DHT22;11050;52.222;20.916;2022-11-06T08:20:37;6.80;99.90
21778;DHT22;11050;52.222;20.916;2022-11-06T08:23:06;6.70;99.90
21778;DHT22;11050;52.222;20.916;2022-11-06T08:25:33;6.70;99.90
21778;DHT22;11050;52.222;20.916;2022-11-06T08:28:00;6.80;99.90
21778;DHT22;11050;52.222;20.916;2022-11-06T08:30:28;6.80;99.90
21778;DHT22;11050;52.222;20.916;2022-11-06T08:33:02;6.80;99.90
21778;DHT22;11050;52.222;20.916;2022-11-06T08:35:35;6.80;99.90
21778;DHT22;11050;52.222;20.916;2022-11-06T08:38:02;6.80;99.90
21778;DHT22;11050;52.222;20.916;2022-11-06T08:40:29;6.70;99.90
21778;DHT22;11050;52.222;20.916;2022-11-06T08:43:15;6.80;99.90
21778;DHT22;11050;52.222;20.916;2022-11-06T08:45:42;6.90;99.90
21778;DHT22;11050;52.222;20.916;2022-11-06T08:48:08;6.90;99.90
21778;DHT22;11050;52.222;20.916;2022-11-06T08:50:37;7.00;99.90
21778;DHT22;11050;52.222;20.916;2022-11-06T08:53:04;7.10;99.90
21778;DHT22;11050;52.222;20.916;2022-11-06T08:55:33;7.20;99.90
21778;DHT22;11050;52.222;20.916;2022-11-06T08:58:00;7.30;99.90
21778;DHT22;11050;52.222;20.916;2022-11-06T09:00:26;7.40;99.90
21778;DHT22;11050;52.222;20.916;2022-11-06T09:03:00;7.50;99.90
21778;DHT22;11050;52.222;20.916;2022-11-06T09:05:29;7.50;99.90
21778;DHT22;11050;52.222;20.916;2022-11-06T09:07:56;7.60;99.90
21778;DHT22;11050;52.222;20.916;2022-11-06T09:10:23;7.60;99.90
21778;DHT22;11050;52.222;20.916;2022-11-06T09:12:50;7.70;99.90
21778;DHT22;11050;52.222;20.916;2022-11-06T09:15:17;7.80;99.90
21778;DHT22;11050;52.222;20.916;2022-11-06T09:17:49;7.90;99.90
21778;DHT22;11050;52.222;20.916;2022-11-06T09:20:18;7.90;99.90
21778;DHT22;11050;52.222;20.916;2022-11-06T09:22:46;8.00;99.90
21778;DHT22;11050;52.222;20.916;2022-11-06T09:25:13;8.10;99.90
21778;DHT22;11050;52.222;20.916;2022-11-06T09:30:14;8.20;99.90
21778;DHT22;11050;52.222;20.916;2022-11-06T09:32:53;8.30;99.90
21778;DHT22;11050;52.222;20.916;2022-11-06T09:35:22;8.30;99.90
21778;DHT22;11050;52.222;20.916;2022-11-06T09:37:49;8.30;99.90
21778;DHT22;11050;52.222;20.916;2022-11-06T09:46:03;8.50;99.90
21778;DHT22;11050;52.222;20.916;2022-11-06T09:48:38;8.50;99.90
21778;DHT22;11050;52.222;20.916;2022-11-06T09:51:19;8.60;99.90
21778;DHT22;11050;52.222;20.916;2022-11-06T09:54:37;8.60;99.90
21778;DHT22;11050;52.222;20.916;2022-11-06T09:56:49;8.60;99.90
21778;DHT22;11050;52.222;20.916;2022-11-06T09:59:21;8.60;99.90
21778;DHT22;11050;52.222;20.916;2022-11-06T10:01:50;8.60;99.90
21778;DHT22;11050;52.222;20.916;2022-11-06T10:04:40;8.60;99.90
21778;DHT22;11050;52.222;20.916;2022-11-06T10:10:00;8.60;99.90
21778;DHT22;11050;52.222;20.916;2022-11-06T10:17:59;8.60;99.90
21778;DHT22;11050;52.222;20.916;2022-11-06T10:20:33;8.60;99.90
21778;DHT22;11050;52.222;20.916;2022-11-06T10:34:22;9.00;99.90
21778;DHT22;11050;52.222;20.916;2022-11-06T10:36:59;9.00;99.90
21778;DHT22;11050;52.222;20.916;2022-11-06T10:39:34;9.00;99.90
21778;DHT22;11050;52.222;20.916;2022-11-06T10:42:05;9.10;99.90
21778;DHT22;11050;52.222;20.916;2022-11-06T10:44:41;9.10;99.90
21778;DHT22;11050;52.222;20.916;2022-11-06T10:47:22;9.20;99.90
21778;DHT22;11050;52.222;20.916;2022-11-06T10:49:52;9.30;99.90
21778;DHT22;11050;52.222;20.916;2022-11-06T10:58:28;9.60;99.90
21778;DHT22;11050;52.222;20.916;2022-11-06T11:01:00;9.60;99.90
21778;DHT22;11050;52.222;20.916;2022-11-06T11:03:34;9.60;99.90
21778;DHT22;11050;52.222;20.916;2022-11-06T11:06:03;9.70;99.90
21778;DHT22;11050;52.222;20.916;2022-11-06T11:11:03;9.80;99.90
21778;DHT22;11050;52.222;20.916;2022-11-06T11:13:31;9.80;99.90
21778;DHT22;11050;52.222;20.916;2022-11-06T11:15:58;9.70;99.90
21778;DHT22;11050;52.222;20.916;2022-11-06T11:18:26;9.70;99.90
21778;DHT22;11050;52.222;20.916;2022-11-06T11:21:12;9.70;99.90
21778;DHT22;11050;52.222;20.916;2022-11-06T11:23:39;9.70;99.90
21778;DHT22;11050;52.222;20.916;2022-11-06T11:26:18;9.70;99.90
21778;DHT22;11050;52.222;20.916;2022-11-06T11:28:54;9.80;99.90
21778;DHT22;11050;52.222;20.916;2022-11-06T11:31:32;9.80;99.90
21778;DHT22;11050;52.222;20.916;2022-11-06T11:34:04;9.80;99.90
21778;DHT22;11050;52.222;20.916;2022-11-06T11:36:59;9.90;99.90
21778;DHT22;11050;52.222;20.916;2022-11-06T11:39:40;10.20;99.90
21778;DHT22;11050;52.222;20.916;2022-11-06T11:42:27;10.70;99.90
21778;DHT22;11050;52.222;20.916;2022-11-06T11:47:40;12.10;99.90
21778;DHT22;11050;52.222;20.916;2022-11-06T11:53:09;13.00;99.90
21778;DHT22;11050;52.222;20.916;2022-11-06T11:55:45;13.30;99.90
21778;DHT22;11050;52.222;20.916;2022-11-06T11:58:25;13.70;99.90
21778;DHT22;11050;52.222;20.916;2022-11-06T12:01:03;14.00;99.90
21778;DHT22;11050;52.222;20.916;2022-11-06T12:03:40;14.40;99.90
21778;DHT22;11050;52.222;20.916;2022-11-06T12:06:13;14.80;99.90
21778;DHT22;11050;52.222;20.916;2022-11-06T12:08:49;15.20;99.90
21778;DHT22;11050;52.222;20.916;2022-11-06T12:11:26;15.60;99.90
21778;DHT22;11050;52.222;20.916;2022-11-06T12:14:30;15.90;99.90
21778;DHT22;11050;52.222;20.916;2022-11-06T12:19:39;16.50;99.90
21778;DHT22;11050;52.222;20.916;2022-11-06T12:22:16;16.70;99.90
21778;DHT22;11050;52.222;20.916;2022-11-06T12:24:54;16.80;99.90
21778;DHT22;11050;52.222;20.916;2022-11-06T12:27:36;17.00;99.90
21778;DHT22;11050;52.222;20.916;2022-11-06T12:30:12;17.20;99.90
21778;DHT22;11050;52.222;20.916;2022-11-06T12:32:55;17.50;99.90
21778;DHT22;11050;52.222;20.916;2022-11-06T12:35:44;17.70;99.20
21778;DHT22;11050;52.222;20.916;2022-11-06T12:41:05;18.00;94.20
21778;DHT22;11050;52.222;20.916;2022-11-06T12:43:41;18.20;93.90
21778;DHT22;11050;52.222;20.916;2022-11-06T12:51:53;18.50;90.40
21778;DHT22;11050;52.222;20.916;2022-11-06T12:54:57;18.70;89.60
21778;DHT22;11050;52.222;20.916;2022-11-06T13:01:12;19.00;79.90
21778;DHT22;11050;52.222;20.916;2022-11-06T13:03:53;19.20;77.20
21778;DHT22;11050;52.222;20.916;2022-11-06T13:12:37;19.40;70.00
21778;DHT22;11050;52.222;20.916;2022-11-06T13:16:06;19.40;69.60
21778;DHT22;11050;52.222;20.916;2022-11-06T13:21:19;19.20;69.30
21778;DHT22;11050;52.222;20.916;2022-11-06T13:24:29;19.10;70.10
21778;DHT22;11050;52.222;20.916;2022-11-06T13:27:38;19.20;69.80
21778;DHT22;11050;52.222;20.916;2022-11-06T13:30:28;19.20;67.90
21778;DHT22;11050;52.222;20.916;2022-11-06T13:33:16;19.30;66.60
21778;DHT22;11050;52.222;20.916;2022-11-06T13:35:48;19.30;66.80
21778;DHT22;11050;52.222;20.916;2022-11-06T13:38:27;19.40;68.20
21778;DHT22;11050;52.222;20.916;2022-11-06T13:41:01;19.40;68.90
21778;DHT22;11050;52.222;20.916;2022-11-06T13:43:41;19.40;69.70
21778;DHT22;11050;52.222;20.916;2022-11-06T13:52:00;19.30;69.30
21778;DHT22;11050;52.222;20.916;2022-11-06T14:05:57;19.10;69.10
21778;DHT22;11050;52.222;20.916;2022-11-06T14:08:37;19.00;69.10
21778;DHT22;11050;52.222;20.916;2022-11-06T14:16:29;18.80;70.20
21778;DHT22;11050;52.222;20.916;2022-11-06T14:19:10;18.70;70.60
21778;DHT22;11050;52.222;20.916;2022-11-06T14:26:47;18.20;71.80
21778;DHT22;11050;52.222;20.916;2022-11-06T14:34:57;17.40;74.30
21778;DHT22;11050;52.222;20.916;2022-11-06T14:37:44;17.20;75.50
21778;DHT22;11050;52.222;20.916;2022-11-06T14:40:13;16.90;77.60
21778;DHT22;11050;52.222;20.916;2022-11-06T14:42:42;16.50;80.60
21778;DHT22;11050;52.222;20.916;2022-11-06T14:45:15;16.20;86.00
21778;DHT22;11050;52.222;20.916;2022-11-06T14:50:23;15.50;94.40
21778;DHT22;11050;52.222;20.916;2022-11-06T14:52:58;15.10;98.20
21778;DHT22;11050;52.222;20.916;2022-11-06T14:58:33;14.20;99.90
21778;DHT22;11050;52.222;20.916;2022-11-06T15:16:27;11.30;99.90
21778;DHT22;11050;52.222;20.916;2022-11-06T15:19:00;11.00;99.90
21778;DHT22;11050;52.222;20.916;2022-11-06T15:21:38;10.70;99.90
21778;DHT22;11050;52.222;20.916;2022-11-06T15:24:16;10.40;99.90
21778;DHT22;11050;52.222;20.916;2022-11-06T15:26:58;10.20;99.90
21778;DHT22;11050;52.222;20.916;2022-11-06T15:29:32;9.90;99.90
21778;DHT22;11050;52.222;20.916;2022-11-06T15:32:25;9.70;99.90
21778;DHT22;11050;52.222;20.916;2022-11-06T15:37:49;9.30;99.90
21778;DHT22;11050;52.222;20.916;2022-11-06T15:40:42;9.10;99.90
21778;DHT22;11050;52.222;20.916;2022-11-06T15:46:02;8.70;99.90
21778;DHT22;11050;52.222;20.916;2022-11-06T15:48:28;8.60;99.90
21778;DHT22;11050;52.222;20.916;2022-11-06T15:50:54;8.40;99.90
21778;DHT22;11050;52.222;20.916;2022-11-06T15:53:25;8.30;99.90
21778;DHT22;11050;52.222;20.916;2022-11-06T15:56:04;8.20;99.90
21778;DHT22;11050;52.222;20.916;2022-11-06T15:58:35;8.10;99.90
21778;DHT22;11050;52.222;20.916;2022-11-06T16:01:04;7.90;99.90
21778;DHT22;11050;52.222;20.916;2022-11-06T16:03:51;7.80;99.90
21778;DHT22;11050;52.222;20.916;2022-11-06T16:06:19;7.70;99.90
21778;DHT22;11050;52.222;20.916;2022-11-06T16:08:45;7.60;99.90
21778;DHT22;11050;52.222;20.916;2022-11-06T16:11:16;7.60;99.90
21778;DHT22;11050;52.222;20.916;2022-11-06T16:13:44;7.40;99.90
21778;DHT22;11050;52.222;20.916;2022-11-06T16:16:47;7.40;99.90
21778;DHT22;11050;52.222;20.916;2022-11-06T16:19:35;7.30;99.90
21778;DHT22;11050;52.222;20.916;2022-11-06T16:22:10;7.20;99.90
21778;DHT22;11050;52.222;20.916;2022-11-06T16:24:52;7.20;99.90
21778;DHT22;11050;52.222;20.916;2022-11-06T16:27:22;7.10;99.90
21778;DHT22;11050;52.222;20.916;2022-11-06T16:29:55;7.10;99.90
21778;DHT22;11050;52.222;20.916;2022-11-06T16:32:26;7.00;99.90
21778;DHT22;11050;52.222;20.916;2022-11-06T16:34:55;7.10;99.90
21778;DHT22;11050;52.222;20.916;2022-11-06T16:39:52;7.00;99.90
21778;DHT22;11050;52.222;20.916;2022-11-06T16:47:40;6.90;99.90
21778;DHT22;11050;52.222;20.916;2022-11-06T16:53:11;6.70;99.90
21778;DHT22;11050;52.222;20.916;2022-11-06T16:56:01;6.70;99.90
21778;DHT22;11050;52.222;20.916;2022-11-06T16:58:32;6.70;99.90
21778;DHT22;11050;52.222;20.916;2022-11-06T17:01:09;6.70;99.90
21778;DHT22;11050;52.222;20.916;2022-11-06T17:03:46;6.70;99.90
21778;DHT22;11050;52.222;20.916;2022-11-06T17:06:29;6.60;99.90
21778;DHT22;11050;52.222;20.916;2022-11-06T17:09:04;6.60;99.90
21778;DHT22;11050;52.222;20.916;2022-11-06T17:11:33;6.60;99.90
21778;DHT22;11050;52.222;20.916;2022-11-06T17:14:04;6.50;99.90
21778;DHT22;11050;52.222;20.916;2022-11-06T17:16:47;6.50;99.90
21778;DHT22;11050;52.222;20.916;2022-11-06T17:19:16;6.50;99.90
21778;DHT22;11050;52.222;20.916;2022-11-06T17:21:43;6.40;99.90
21778;DHT22;11050;52.222;20.916;2022-11-06T17:24:09;6.40;99.90
21778;DHT22;11050;52.222;20.916;2022-11-06T17:26:41;6.40;99.90
21778;DHT22;11050;52.222;20.916;2022-11-06T17:29:12;6.30;99.90
21778;DHT22;11050;52.222;20.916;2022-11-06T17:31:38;6.30;99.90
21778;DHT22;11050;52.222;20.916;2022-11-06T17:34:04;6.20;99.90
21778;DHT22;11050;52.222;20.916;2022-11-06T17:36:30;6.20;99.90
21778;DHT22;11050;52.222;20.916;2022-11-06T17:38:58;6.20;99.90
21778;DHT22;11050;52.222;20.916;2022-11-06T17:41:25;6.10;99.90
21778;DHT22;11050;52.222;20.916;2022-11-06T17:44:04;6.10;99.90
21778;DHT22;11050;52.222;20.916;2022-11-06T17:46:34;6.00;99.90
21778;DHT22;11050;52.222;20.916;2022-11-06T17:49:03;6.00;99.90
21778;DHT22;11050;52.222;20.916;2022-11-06T17:51:29;6.00;99.90
21778;DHT22;11050;52.222;20.916;2022-11-06T17:54:15;6.00;99.90
21778;DHT22;11050;52.222;20.916;2022-11-06T17:56:42;5.90;99.90
21778;DHT22;11050;52.222;20.916;2022-11-06T17:59:12;5.90;99.90
21778;DHT22;11050;52.222;20.916;2022-11-06T18:01:38;5.90;99.90
21778;DHT22;11050;52.222;20.916;2022-11-06T18:04:05;5.90;99.90
21778;DHT22;11050;52.222;20.916;2022-11-06T18:06:31;5.80;99.90
21778;DHT22;11050;52.222;20.916;2022-11-06T18:08:59;5.80;99.90
21778;DHT22;11050;52.222;20.916;2022-11-06T18:11:26;5.70;99.90
21778;DHT22;11050;52.222;20.916;2022-11-06T18:13:54;5.70;99.90
21778;DHT22;11050;52.222;20.916;2022-11-06T18:16:26;5.70;99.90
21778;DHT22;11050;52.222;20.916;2022-11-06T18:18:55;5.70;99.90
21778;DHT22;11050;52.222;20.916;2022-11-06T18:21:21;5.60;99.90
21778;DHT22;11050;52.222;20.916;2022-11-06T18:23:48;5.60;99.90
21778;DHT22;11050;52.222;20.916;2022-11-06T18:26:14;5.60;99.90
21778;DHT22;11050;52.222;20.916;2022-11-06T18:28:41;5.60;99.90
21778;DHT22;11050;52.222;20.916;2022-11-06T18:31:06;5.60;99.90
21778;DHT22;11050;52.222;20.916;2022-11-06T18:33:33;5.60;99.90
21778;DHT22;11050;52.222;20.916;2022-11-06T18:36:00;5.60;99.90
21778;DHT22;11050;52.222;20.916;2022-11-06T18:38:28;5.50;99.90
21778;DHT22;11050;52.222;20.916;2022-11-06T18:40:54;5.50;99.90
21778;DHT22;11050;52.222;20.916;2022-11-06T18:43:20;5.50;99.90
21778;DHT22;11050;52.222;20.916;2022-11-06T18:45:46;5.40;99.90
21778;DHT22;11050;52.222;20.916;2022-11-06T18:48:11;5.40;99.90
21778;DHT22;11050;52.222;20.916;2022-11-06T18:50:37;5.40;99.90
21778;DHT22;11050;52.222;20.916;2022-11-06T18:53:04;5.40;99.90
21778;DHT22;11050;52.222;20.916;2022-11-06T18:55:30;5.30;99.90
21778;DHT22;11050;52.222;20.916;2022-11-06T18:57:57;5.40;99.90
21778;DHT22;11050;52.222;20.916;2022-11-06T19:00:23;5.30;99.90
21778;DHT22;11050;52.222;20.916;2022-11-06T19:02:50;5.30;99.90
21778;DHT22;11050;52.222;20.916;2022-11-06T19:05:16;5.20;99.90
21778;DHT22;11050;52.222;20.916;2022-11-06T19:07:43;5.20;99.90